createdAt,value
2023-05-06T00:01:22.221Z,13.01
2023-05-06T00:03:49.360Z,12.98
2023-05-06T00:06:16.792Z,13.05
2023-05-06T00:08:43.755Z,13.09
2023-05-06T00:11:10.652Z,13.12
2023-05-06T00:13:38.438Z,13.12
2023-05-06T00:16:05.910Z,13.09
2023-05-06T00:18:33.201Z,13.06
2023-05-06T00:21:01.045Z,13.04
2023-05-06T00:23:28.165Z,13.01
2023-05-06T00:25:55.254Z,12.94
2023-05-06T00:28:22.274Z,12.85
2023-05-06T00:30:49.236Z,12.70
2023-05-06T00:33:16.123Z,12.60
2023-05-06T00:35:43.094Z,12.54
2023-05-06T00:38:12.170Z,12.45
2023-05-06T00:40:39.379Z,12.39
2023-05-06T00:43:06.375Z,12.33
2023-05-06T00:45:33.377Z,12.21
2023-05-06T00:48:00.401Z,12.11
2023-05-06T00:50:28.730Z,12.02
2023-05-06T00:52:57.159Z,11.94
2023-05-06T00:55:24.705Z,11.85
2023-05-06T00:57:52.679Z,11.80
2023-05-06T01:00:19.850Z,11.81
2023-05-06T01:02:48.245Z,11.80
2023-05-06T01:05:18.749Z,11.82
2023-05-06T01:08:03.854Z,11.84
2023-05-06T01:11:06.684Z,11.83
2023-05-06T01:13:39.697Z,11.92
2023-05-06T01:16:07.689Z,11.96
2023-05-06T01:18:35.041Z,11.91
2023-05-06T01:21:02.206Z,11.87
2023-05-06T01:23:29.173Z,11.80
2023-05-06T01:25:56.426Z,11.70
2023-05-06T01:28:23.245Z,11.56
2023-05-06T01:30:53.704Z,11.42
2023-05-06T01:33:51.584Z,11.32
2023-05-06T01:36:46.807Z,11.34
2023-05-06T01:39:25.896Z,11.39
2023-05-06T01:41:54.324Z,11.44
2023-05-06T01:44:22.195Z,11.50
2023-05-06T01:46:49.926Z,11.57
2023-05-06T01:49:17.192Z,11.69
2023-05-06T01:51:51.147Z,11.80
2023-05-06T01:54:18.273Z,11.90
2023-05-06T01:56:45.218Z,11.95
2023-05-06T01:59:12.104Z,11.93
2023-05-06T02:01:39.039Z,11.94
2023-05-06T02:04:05.954Z,11.94
2023-05-06T02:06:32.870Z,11.93
2023-05-06T02:08:59.761Z,11.99
2023-05-06T02:11:26.560Z,12.04
2023-05-06T02:13:53.498Z,12.04
2023-05-06T02:16:22.048Z,12.06
2023-05-06T02:18:49.042Z,12.15
2023-05-06T02:21:16.124Z,12.22
2023-05-06T02:23:43.071Z,12.15
2023-05-06T02:26:10.928Z,12.08
2023-05-06T02:28:37.819Z,12.04
2023-05-06T02:31:04.738Z,11.92
2023-05-06T02:33:31.661Z,11.78
2023-05-06T02:35:58.514Z,11.70
2023-05-06T02:38:26.185Z,11.65
2023-05-06T02:40:52.987Z,11.55
2023-05-06T02:43:19.867Z,11.45
2023-05-06T02:45:46.719Z,11.43
2023-05-06T02:48:13.724Z,11.47
2023-05-06T02:50:41.333Z,11.51
2023-05-06T02:53:09.529Z,11.45
2023-05-06T02:55:36.555Z,11.45
2023-05-06T02:58:03.381Z,11.51
2023-05-06T03:00:30.258Z,11.56
2023-05-06T03:02:57.235Z,11.55
2023-05-06T03:05:24.394Z,11.58
2023-05-06T03:07:51.362Z,11.65
2023-05-06T03:10:18.260Z,11.71
2023-05-06T03:12:45.266Z,11.71
2023-05-06T03:15:12.241Z,11.76
2023-05-06T03:17:39.769Z,11.81
2023-05-06T03:20:08.846Z,11.85
2023-05-06T03:22:35.958Z,11.86
2023-05-06T03:25:02.869Z,11.83
2023-05-06T03:27:30.135Z,11.73
2023-05-06T03:29:56.919Z,11.55
2023-05-06T03:32:23.764Z,11.42
2023-05-06T03:34:51.316Z,11.35
2023-05-06T03:37:18.887Z,11.32
2023-05-06T03:39:45.746Z,11.33
2023-05-06T03:42:12.584Z,11.28
2023-05-06T03:44:39.429Z,11.22
2023-05-06T03:47:06.270Z,11.21
2023-05-06T03:49:33.128Z,11.26
2023-05-06T03:51:59.962Z,11.35
2023-05-06T03:54:26.899Z,11.43
2023-05-06T03:56:53.756Z,11.54
2023-05-06T03:59:20.585Z,11.63
2023-05-06T04:01:47.549Z,11.75
2023-05-06T04:04:14.493Z,11.87
2023-05-06T04:06:41.445Z,11.82
2023-05-06T04:09:08.349Z,11.23
2023-05-06T04:11:36.040Z,10.81
2023-05-06T04:14:02.979Z,10.82
2023-05-06T04:16:30.033Z,10.98
2023-05-06T04:18:57.703Z,11.00
2023-05-06T04:21:24.592Z,11.02
2023-05-06T04:23:51.711Z,11.07
2023-05-06T04:26:18.632Z,11.02
2023-05-06T04:28:46.113Z,10.84
2023-05-06T04:31:14.951Z,10.78
2023-05-06T04:33:42.303Z,10.78
2023-05-06T04:36:09.212Z,10.84
2023-05-06T04:38:37.730Z,10.87
2023-05-06T04:41:05.532Z,10.84
2023-05-06T04:43:32.949Z,10.83
2023-05-06T04:46:00.092Z,10.87
2023-05-06T04:48:27.194Z,10.95
2023-05-06T04:50:54.188Z,11.07
2023-05-06T04:53:21.161Z,11.20
2023-05-06T04:55:48.045Z,11.37
2023-05-06T04:58:15.023Z,12.35
2023-05-06T05:00:41.991Z,13.04
2023-05-06T05:03:08.912Z,13.11
2023-05-06T05:05:35.908Z,13.25
2023-05-06T05:08:02.722Z,13.45
2023-05-06T05:10:29.675Z,13.49
2023-05-06T05:12:56.699Z,13.53
2023-05-06T05:15:23.746Z,13.79
2023-05-06T05:17:51.142Z,13.85
2023-05-06T05:20:18.217Z,13.96
2023-05-06T05:22:45.003Z,14.17
2023-05-06T05:25:12.344Z,14.59
2023-05-06T05:27:39.762Z,15.38
2023-05-06T05:30:08.112Z,15.84
2023-05-06T05:32:35.085Z,16.97
2023-05-06T05:35:02.164Z,18.05
2023-05-06T05:37:29.165Z,17.83
2023-05-06T05:39:56.101Z,17.56
2023-05-06T05:42:22.967Z,17.63
2023-05-06T05:44:49.877Z,18.55
2023-05-06T05:47:16.750Z,18.95
2023-05-06T05:49:43.600Z,18.81
2023-05-06T05:52:10.422Z,18.52
2023-05-06T05:54:37.390Z,17.93
2023-05-06T05:57:04.586Z,17.35
2023-05-06T05:59:32.966Z,16.97
2023-05-06T06:01:59.882Z,16.87
2023-05-06T06:04:27.208Z,16.93
2023-05-06T06:06:54.179Z,16.81
2023-05-06T06:09:21.212Z,16.66
2023-05-06T06:11:48.172Z,16.32
2023-05-06T06:14:15.043Z,16.12
2023-05-06T06:16:42.178Z,16.20
2023-05-06T06:19:09.164Z,16.57
2023-05-06T06:21:36.169Z,18.63
2023-05-06T06:24:03.207Z,21.27
2023-05-06T06:26:30.023Z,23.44
2023-05-06T06:28:56.810Z,25.26
2023-05-06T06:31:24.031Z,27.10
2023-05-06T06:33:50.875Z,29.07
2023-05-06T06:36:17.666Z,30.64
2023-05-06T06:38:44.653Z,32.65
2023-05-06T06:41:11.550Z,34.29
2023-05-06T06:43:38.359Z,35.56
2023-05-06T06:46:05.328Z,36.81
2023-05-06T06:48:32.199Z,37.15
2023-05-06T06:50:59.240Z,37.61
2023-05-06T06:53:26.087Z,36.34
2023-05-06T06:55:52.977Z,36.67
2023-05-06T06:58:19.933Z,37.57
2023-05-06T07:00:46.847Z,36.80
2023-05-06T07:03:15.981Z,36.58
2023-05-06T07:05:42.936Z,35.42
2023-05-06T07:08:09.737Z,35.93
2023-05-06T07:10:36.849Z,35.12
2023-05-06T07:13:03.785Z,33.47
2023-05-06T07:15:30.739Z,32.28
2023-05-06T07:17:57.617Z,33.80
2023-05-06T07:20:24.526Z,35.60
2023-05-06T07:22:51.270Z,35.88
2023-05-06T07:25:18.212Z,36.23
2023-05-06T07:27:44.944Z,37.55
2023-05-06T07:30:12.170Z,38.22
2023-05-06T07:32:43.650Z,39.17
2023-05-06T07:35:10.733Z,40.80
2023-05-06T07:37:38.049Z,41.61
2023-05-06T07:40:05.707Z,40.97
2023-05-06T07:42:32.739Z,40.08
2023-05-06T07:44:59.738Z,39.94
2023-05-06T07:47:31.863Z,39.38
2023-05-06T07:49:59.053Z,39.33
2023-05-06T07:52:25.844Z,40.31
2023-05-06T07:54:53.452Z,41.24
2023-05-06T07:57:20.343Z,42.00
2023-05-06T07:59:48.060Z,40.43
2023-05-06T08:02:15.409Z,39.56
2023-05-06T08:04:43.195Z,41.23
2023-05-06T08:07:11.020Z,42.90
2023-05-06T08:09:38.074Z,43.69
2023-05-06T08:12:04.863Z,44.07
2023-05-06T08:14:31.894Z,44.71
2023-05-06T08:16:58.810Z,45.10
2023-05-06T08:19:26.697Z,44.69
2023-05-06T08:21:53.599Z,44.82
2023-05-06T08:24:21.800Z,44.83
2023-05-06T08:26:48.722Z,45.41
2023-05-06T08:29:16.113Z,45.85
2023-05-06T08:31:43.638Z,44.69
2023-05-06T08:34:10.600Z,44.70
2023-05-06T08:36:37.511Z,44.49
2023-05-06T08:39:04.761Z,44.45
2023-05-06T08:41:31.826Z,44.44
2023-05-06T08:43:58.805Z,44.75
2023-05-06T08:46:27.862Z,44.37
2023-05-06T08:48:54.866Z,44.06
2023-05-06T08:51:23.669Z,44.00
2023-05-06T08:53:52.228Z,44.05
2023-05-06T08:56:19.262Z,44.49
2023-05-06T08:58:46.946Z,44.42
2023-05-06T09:01:14.981Z,44.07
2023-05-06T09:03:42.014Z,43.77
2023-05-06T09:06:09.066Z,43.86
2023-05-06T09:08:36.480Z,43.58
2023-05-06T09:11:03.405Z,43.83
2023-05-06T09:13:30.335Z,43.43
2023-05-06T09:15:57.189Z,43.29
2023-05-06T09:18:24.070Z,43.05
2023-05-06T09:20:51.143Z,42.20
2023-05-06T09:23:18.173Z,42.05
2023-05-06T09:25:46.312Z,41.67
2023-05-06T09:28:13.760Z,41.04
2023-05-06T09:30:41.938Z,40.28
2023-05-06T09:33:09.180Z,39.41
2023-05-06T09:35:40.498Z,39.13
2023-05-06T09:38:08.072Z,37.93
2023-05-06T09:40:36.203Z,37.51
2023-05-06T09:43:03.636Z,37.70
2023-05-06T09:45:30.986Z,37.98
2023-05-06T09:47:58.784Z,37.70
2023-05-06T09:50:26.729Z,37.10
2023-05-06T09:52:53.750Z,37.10
2023-05-06T09:55:21.446Z,37.33
2023-05-06T09:57:49.478Z,36.43
2023-05-06T10:00:17.328Z,34.78
2023-05-06T10:02:45.986Z,33.76
2023-05-06T10:05:14.049Z,33.30
2023-05-06T10:07:44.474Z,33.07
2023-05-06T10:10:14.641Z,32.77
2023-05-06T10:12:41.671Z,32.44
2023-05-06T10:15:09.913Z,32.21
2023-05-06T10:17:37.013Z,31.79
2023-05-06T10:20:05.048Z,31.53
2023-05-06T10:22:31.790Z,31.13
2023-05-06T10:25:07.531Z,30.45
2023-05-06T10:27:36.107Z,30.06
2023-05-06T10:30:02.944Z,29.57
2023-05-06T10:32:32.413Z,29.16
2023-05-06T10:35:06.421Z,28.48
2023-05-06T10:37:33.273Z,28.05
2023-05-06T10:40:00.206Z,28.12
2023-05-06T10:42:28.644Z,27.88
2023-05-06T10:45:04.208Z,27.58
2023-05-06T10:47:53.024Z,27.09
2023-05-06T10:50:23.479Z,26.94
2023-05-06T10:52:55.627Z,26.92
2023-05-06T10:55:36.103Z,27.07
2023-05-06T10:58:11.727Z,27.14
2023-05-06T11:00:38.712Z,26.78
2023-05-06T11:03:07.719Z,26.57
2023-05-06T11:05:52.863Z,26.52
2023-05-06T11:08:25.344Z,26.47
2023-05-06T11:10:53.433Z,26.48
2023-05-06T11:13:29.896Z,26.14
2023-05-06T11:15:57.915Z,25.87
2023-05-06T11:18:24.794Z,25.76
2023-05-06T11:21:09.978Z,25.77
2023-05-06T11:23:43.154Z,25.91
2023-05-06T11:26:10.554Z,25.83
2023-05-06T11:28:38.768Z,25.77
2023-05-06T11:31:05.561Z,25.93
2023-05-06T11:33:34.010Z,25.87
2023-05-06T11:36:01.191Z,25.92
2023-05-06T11:38:45.745Z,25.84
2023-05-06T11:41:13.065Z,25.88
2023-05-06T11:43:40.156Z,25.94
2023-05-06T11:46:07.124Z,26.18
2023-05-06T11:48:34.015Z,26.30
2023-05-06T11:51:01.325Z,26.37
2023-05-06T11:53:28.215Z,26.44
2023-05-06T11:55:55.216Z,26.49
2023-05-06T11:58:28.960Z,26.61
2023-05-06T12:00:57.339Z,26.64
2023-05-06T12:03:26.052Z,26.57
2023-05-06T12:05:53.296Z,26.54
2023-05-06T12:08:31.221Z,26.57
2023-05-06T12:11:10.551Z,26.69
2023-05-06T12:13:37.934Z,26.62
2023-05-06T12:16:05.438Z,26.63
2023-05-06T12:18:32.539Z,26.71
2023-05-06T12:21:02.886Z,26.72
2023-05-06T12:23:30.016Z,26.79
2023-05-06T12:26:02.860Z,26.66
2023-05-06T12:28:30.692Z,26.63
2023-05-06T12:30:57.792Z,26.74
2023-05-06T12:33:24.753Z,26.88
2023-05-06T12:35:52.760Z,27.13
2023-05-06T12:38:19.580Z,27.51
2023-05-06T12:40:53.701Z,27.59
2023-05-06T12:43:28.707Z,27.49
2023-05-06T12:46:09.370Z,27.41
2023-05-06T12:48:36.426Z,27.51
2023-05-06T12:51:23.580Z,27.79
2023-05-06T12:53:50.531Z,28.17
2023-05-06T12:56:17.396Z,28.43
2023-05-06T12:58:44.336Z,28.73
2023-05-06T13:01:11.396Z,28.90
2023-05-06T13:03:41.158Z,29.07
2023-05-06T13:06:08.268Z,28.74
2023-05-06T13:08:35.177Z,28.51
2023-05-06T13:11:02.787Z,28.25
2023-05-06T13:13:29.708Z,28.21
2023-05-06T13:15:57.395Z,28.24
2023-05-06T13:18:24.420Z,28.00
2023-05-06T13:20:52.077Z,27.68
2023-05-06T13:23:19.735Z,27.39
2023-05-06T13:26:02.705Z,27.27
2023-05-06T13:28:30.047Z,27.29
2023-05-06T13:30:56.863Z,27.51
2023-05-06T13:33:23.687Z,27.53
2023-05-06T13:35:50.620Z,27.37
2023-05-06T13:38:17.418Z,27.33
2023-05-06T13:40:48.395Z,27.42
2023-05-06T13:43:16.117Z,27.61
2023-05-06T13:45:45.161Z,27.69
2023-05-06T13:48:13.122Z,27.68
2023-05-06T13:50:44.347Z,27.74
2023-05-06T13:53:11.941Z,27.80
2023-05-06T13:55:38.780Z,27.83
2023-05-06T13:58:06.311Z,28.22
2023-05-06T14:00:33.562Z,28.39
2023-05-06T14:03:01.123Z,28.48
2023-05-06T14:05:28.256Z,28.43
2023-05-06T14:07:55.051Z,28.32
2023-05-06T14:10:22.074Z,28.23
2023-05-06T14:12:49.134Z,28.06
2023-05-06T14:15:16.022Z,27.96
2023-05-06T14:17:43.184Z,28.07
2023-05-06T14:20:10.795Z,28.17
2023-05-06T14:22:40.275Z,28.24
2023-05-06T14:25:08.230Z,28.41
2023-05-06T14:27:35.438Z,28.44
2023-05-06T14:30:08.607Z,28.80
2023-05-06T14:32:36.578Z,29.01
2023-05-06T14:35:04.264Z,29.06
2023-05-06T14:37:31.067Z,29.13
2023-05-06T14:39:58.039Z,28.78
2023-05-06T14:42:24.915Z,27.67
2023-05-06T14:44:51.695Z,27.17
2023-05-06T14:47:19.202Z,26.72
2023-05-06T14:49:46.128Z,26.38
2023-05-06T14:52:12.963Z,25.94
2023-05-06T14:54:42.773Z,25.47
2023-05-06T14:57:10.197Z,25.36
2023-05-06T14:59:37.403Z,25.26
2023-05-06T15:02:07.672Z,25.04
2023-05-06T15:04:34.947Z,24.83
2023-05-06T15:07:01.903Z,24.68
2023-05-06T15:09:28.799Z,24.63
2023-05-06T15:11:55.630Z,24.59
2023-05-06T15:14:22.459Z,24.45
2023-05-06T15:16:49.506Z,24.34
2023-05-06T15:19:16.716Z,24.02
2023-05-06T15:21:44.352Z,23.67
2023-05-06T15:24:11.317Z,23.50
2023-05-06T15:26:38.109Z,23.51
2023-05-06T15:29:06.822Z,23.49
2023-05-06T15:31:39.498Z,23.62
2023-05-06T15:34:07.724Z,23.51
2023-05-06T15:36:34.596Z,24.21
2023-05-06T15:39:01.756Z,24.69
2023-05-06T15:41:31.437Z,24.99
2023-05-06T15:43:58.661Z,25.12
2023-05-06T15:46:26.959Z,25.29
2023-05-06T15:49:09.016Z,25.58
2023-05-06T15:51:40.581Z,25.59
2023-05-06T15:54:07.443Z,25.83
2023-05-06T15:56:40.596Z,25.98
2023-05-06T15:59:08.502Z,25.90
2023-05-06T16:01:54.107Z,25.82
2023-05-06T16:04:23.200Z,25.80
2023-05-06T16:06:50.262Z,25.74
2023-05-06T16:09:17.146Z,25.78
2023-05-06T16:11:43.913Z,25.55
2023-05-06T16:14:10.794Z,25.21
2023-05-06T16:16:38.103Z,24.93
2023-05-06T16:19:05.141Z,24.68
2023-05-06T16:21:32.100Z,24.61
2023-05-06T16:23:59.057Z,24.51
2023-05-06T16:26:26.073Z,24.35
2023-05-06T16:28:53.937Z,24.28
2023-05-06T16:31:20.920Z,24.28
2023-05-06T16:33:48.075Z,24.28
2023-05-06T16:36:15.240Z,24.41
2023-05-06T16:38:42.542Z,24.59
2023-05-06T16:41:09.345Z,24.56
2023-05-06T16:43:36.399Z,24.43
2023-05-06T16:46:03.268Z,24.42
2023-05-06T16:48:30.338Z,24.47
2023-05-06T16:50:58.327Z,24.54
2023-05-06T16:53:28.179Z,24.58
2023-05-06T16:55:55.614Z,24.55
2023-05-06T16:58:22.614Z,24.57
2023-05-06T17:00:52.850Z,24.67
2023-05-06T17:03:20.068Z,24.19
2023-05-06T17:05:47.168Z,23.65
2023-05-06T17:08:16.226Z,23.06
2023-05-06T17:10:43.876Z,22.54
2023-05-06T17:13:11.011Z,22.01
2023-05-06T17:15:37.880Z,21.57
2023-05-06T17:18:05.179Z,21.16
2023-05-06T17:20:33.635Z,20.97
2023-05-06T17:23:05.044Z,20.63
2023-05-06T17:25:31.903Z,20.33
2023-05-06T17:27:58.882Z,20.01
2023-05-06T17:30:25.661Z,19.78
2023-05-06T17:32:52.532Z,19.52
2023-05-06T17:35:20.388Z,19.33
2023-05-06T17:37:47.206Z,19.14
2023-05-06T17:40:15.469Z,19.03
2023-05-06T17:42:42.432Z,18.93
2023-05-06T17:45:09.730Z,18.83
2023-05-06T17:47:37.344Z,18.74
2023-05-06T17:50:04.761Z,18.58
2023-05-06T17:52:31.707Z,18.40
2023-05-06T17:55:23.432Z,18.22
2023-05-06T17:57:46.110Z,18.01
2023-05-06T18:00:14.243Z,17.73
2023-05-06T18:02:41.734Z,17.48
2023-05-06T18:05:09.208Z,17.23
2023-05-06T18:07:36.516Z,16.99
2023-05-06T18:10:03.452Z,16.80
2023-05-06T18:12:31.215Z,16.61
2023-05-06T18:14:58.250Z,16.45
2023-05-06T18:17:26.070Z,16.29
2023-05-06T18:19:53.044Z,16.13
2023-05-06T18:22:19.877Z,16.02
2023-05-06T18:24:46.701Z,15.93
2023-05-06T18:27:13.694Z,15.84
2023-05-06T18:29:41.714Z,15.74
2023-05-06T18:32:08.834Z,15.67
2023-05-06T18:34:36.088Z,15.61
2023-05-06T18:37:03.823Z,15.50
2023-05-06T18:39:30.596Z,15.40
2023-05-06T18:41:57.552Z,15.30
2023-05-06T18:44:24.418Z,15.27
2023-05-06T18:46:51.411Z,15.19
2023-05-06T18:49:18.412Z,15.09
2023-05-06T18:51:45.447Z,14.99
2023-05-06T18:54:14.258Z,14.91
2023-05-06T18:56:43.831Z,14.81
2023-05-06T18:59:11.455Z,14.69
2023-05-06T19:01:38.327Z,14.59
2023-05-06T19:04:06.683Z,14.51
2023-05-06T19:06:33.727Z,14.51
2023-05-06T19:09:01.581Z,14.50
2023-05-06T19:11:28.635Z,14.44
2023-05-06T19:13:55.595Z,14.39
2023-05-06T19:16:22.663Z,14.42
2023-05-06T19:18:49.646Z,14.44
2023-05-06T19:21:18.861Z,14.43
2023-05-06T19:23:45.738Z,14.45
2023-05-06T19:26:13.853Z,14.43
2023-05-06T19:28:40.846Z,14.38
2023-05-06T19:31:09.579Z,14.26
2023-05-06T19:33:38.076Z,14.20
2023-05-06T19:36:05.390Z,14.11
2023-05-06T19:38:32.268Z,14.01
2023-05-06T19:40:59.205Z,13.97
2023-05-06T19:43:26.120Z,13.94
2023-05-06T19:45:52.877Z,13.92
2023-05-06T19:48:19.920Z,13.91
2023-05-06T19:50:46.718Z,13.89
2023-05-06T19:53:13.627Z,13.84
2023-05-06T19:55:40.576Z,13.78
2023-05-06T19:58:07.491Z,13.70
2023-05-06T20:00:34.488Z,13.67
2023-05-06T20:03:01.409Z,13.68
2023-05-06T20:05:32.177Z,13.66
2023-05-06T20:08:02.633Z,13.70
2023-05-06T20:10:29.698Z,13.66
2023-05-06T20:12:57.894Z,13.70
2023-05-06T20:15:26.749Z,13.73
2023-05-06T20:17:53.974Z,13.78
2023-05-06T20:20:21.061Z,13.80
2023-05-06T20:22:48.136Z,13.77
2023-05-06T20:25:18.961Z,13.77
2023-05-06T20:27:46.579Z,13.74
2023-05-06T20:30:13.598Z,13.70
2023-05-06T20:32:40.913Z,13.68
2023-05-06T20:35:08.834Z,13.67
2023-05-06T20:37:36.394Z,13.65
2023-05-06T20:40:05.193Z,13.61
2023-05-06T20:42:32.108Z,13.59
2023-05-06T20:44:59.422Z,13.50
2023-05-06T20:47:27.064Z,13.48
2023-05-06T20:49:54.696Z,13.43
2023-05-06T20:52:22.161Z,13.38
2023-05-06T20:54:49.321Z,13.32
2023-05-06T20:57:16.611Z,13.29
2023-05-06T20:59:43.629Z,13.25
2023-05-06T21:02:10.716Z,13.19
2023-05-06T21:04:37.944Z,13.20
2023-05-06T21:07:04.924Z,13.19
2023-05-06T21:09:31.931Z,13.13
2023-05-06T21:11:59.159Z,13.07
2023-05-06T21:14:26.957Z,13.00
2023-05-06T21:16:53.927Z,12.90
2023-05-06T21:19:21.115Z,12.84
2023-05-06T21:21:48.429Z,12.78
2023-05-06T21:24:15.595Z,12.75
2023-05-06T21:26:42.418Z,12.73
2023-05-06T21:29:09.363Z,12.72
2023-05-06T21:31:36.658Z,12.68
2023-05-06T21:34:04.373Z,12.71
2023-05-06T21:36:31.434Z,12.71
2023-05-06T21:39:12.252Z,12.71
2023-05-06T21:41:39.480Z,12.70
2023-05-06T21:44:08.446Z,12.72
2023-05-06T21:46:36.947Z,12.69
2023-05-06T21:49:04.054Z,12.71
2023-05-06T21:51:33.263Z,12.69
2023-05-06T21:53:59.993Z,12.69
2023-05-06T21:56:26.921Z,12.64
2023-05-06T21:58:56.513Z,12.58
2023-05-06T22:01:26.539Z,12.51
2023-05-06T22:03:54.116Z,12.44
2023-05-06T22:06:22.047Z,12.38
2023-05-06T22:08:49.760Z,12.33
2023-05-06T22:11:16.987Z,12.30
2023-05-06T22:13:43.952Z,12.28
2023-05-06T22:16:10.969Z,12.20
2023-05-06T22:18:41.645Z,12.19
2023-05-06T22:21:09.960Z,12.17
2023-05-06T22:23:37.072Z,12.12
2023-05-06T22:26:04.528Z,12.09
2023-05-06T22:28:31.436Z,12.05
2023-05-06T22:30:58.387Z,12.00
2023-05-06T22:33:26.619Z,11.96
2023-05-06T22:35:53.893Z,11.89
2023-05-06T22:38:20.774Z,11.78
2023-05-06T22:40:47.876Z,11.75
2023-05-06T22:43:14.925Z,11.72
2023-05-06T22:45:41.806Z,11.70
2023-05-06T22:48:08.707Z,11.68
2023-05-06T22:50:36.734Z,11.67
2023-05-06T22:53:13.551Z,11.67
2023-05-06T22:55:41.897Z,11.61
2023-05-06T22:58:08.725Z,11.51
2023-05-06T23:00:35.676Z,11.40
2023-05-06T23:03:03.171Z,11.40
2023-05-06T23:05:30.253Z,11.35
2023-05-06T23:07:57.208Z,11.45
2023-05-06T23:10:23.975Z,11.49
2023-05-06T23:12:50.944Z,11.50
2023-05-06T23:15:17.833Z,11.48
2023-05-06T23:17:45.051Z,11.47
2023-05-06T23:20:13.027Z,11.45
2023-05-06T23:22:39.914Z,11.38
2023-05-06T23:25:09.339Z,11.37
2023-05-06T23:27:41.461Z,11.30
2023-05-06T23:30:08.970Z,11.32
2023-05-06T23:32:36.071Z,11.35
2023-05-06T23:35:03.140Z,11.41
2023-05-06T23:37:29.944Z,11.34
2023-05-06T23:39:58.733Z,11.28
2023-05-06T23:42:26.289Z,11.23
2023-05-06T23:44:53.705Z,11.14
2023-05-06T23:47:20.555Z,11.07
2023-05-06T23:49:47.408Z,11.11
2023-05-06T23:52:14.303Z,11.17
2023-05-06T23:54:41.117Z,11.19
2023-05-06T23:57:08.098Z,11.16
2023-05-06T23:59:35.162Z,11.09
